sensor_id;sensor_type;location;lat;lon;timestamp;P1;durP1;ratioP1;P2;durP2;ratioP2
16824;SDS011;8529;48.108;-1.706;2023-02-11T00:00:48;31.90;;;20.00;;
16824;SDS011;8529;48.108;-1.706;2023-02-11T00:03:15;29.93;;;19.33;;
16824;SDS011;8529;48.108;-1.706;2023-02-11T00:05:42;39.53;;;22.90;;
16824;SDS011;8529;48.108;-1.706;2023-02-11T00:08:09;31.23;;;20.43;;
16824;SDS011;8529;48.108;-1.706;2023-02-11T00:10:41;31.93;;;20.50;;
16824;SDS011;8529;48.108;-1.706;2023-02-11T00:13:11;30.97;;;19.57;;
16824;SDS011;8529;48.108;-1.706;2023-02-11T00:15:38;29.07;;;18.67;;
16824;SDS011;8529;48.108;-1.706;2023-02-11T00:18:05;31.87;;;19.63;;
16824;SDS011;8529;48.108;-1.706;2023-02-11T00:20:32;33.10;;;20.53;;
16824;SDS011;8529;48.108;-1.706;2023-02-11T00:22:59;32.67;;;20.70;;
16824;SDS011;8529;48.108;-1.706;2023-02-11T00:25:26;36.03;;;20.70;;
16824;SDS011;8529;48.108;-1.706;2023-02-11T00:27:53;33.03;;;21.17;;
16824;SDS011;8529;48.108;-1.706;2023-02-11T00:30:21;30.33;;;20.30;;
16824;SDS011;8529;48.108;-1.706;2023-02-11T00:32:48;33.70;;;21.83;;
16824;SDS011;8529;48.108;-1.706;2023-02-11T00:35:15;32.60;;;20.30;;
16824;SDS011;8529;48.108;-1.706;2023-02-11T00:37:42;35.83;;;21.30;;
16824;SDS011;8529;48.108;-1.706;2023-02-11T00:40:10;33.47;;;20.77;;
16824;SDS011;8529;48.108;-1.706;2023-02-11T00:42:40;32.70;;;21.33;;
16824;SDS011;8529;48.108;-1.706;2023-02-11T00:45:07;33.67;;;21.03;;
16824;SDS011;8529;48.108;-1.706;2023-02-11T00:47:36;35.30;;;21.80;;
16824;SDS011;8529;48.108;-1.706;2023-02-11T00:50:03;36.00;;;22.60;;
16824;SDS011;8529;48.108;-1.706;2023-02-11T00:52:30;31.03;;;20.33;;
16824;SDS011;8529;48.108;-1.706;2023-02-11T00:54:58;30.87;;;19.93;;
16824;SDS011;8529;48.108;-1.706;2023-02-11T00:57:25;31.77;;;20.23;;
16824;SDS011;8529;48.108;-1.706;2023-02-11T00:59:52;32.73;;;21.30;;
16824;SDS011;8529;48.108;-1.706;2023-02-11T01:02:18;33.00;;;20.63;;
16824;SDS011;8529;48.108;-1.706;2023-02-11T01:04:47;32.87;;;20.47;;
16824;SDS011;8529;48.108;-1.706;2023-02-11T01:07:14;30.57;;;18.93;;
16824;SDS011;8529;48.108;-1.706;2023-02-11T01:09:41;32.10;;;20.67;;
16824;SDS011;8529;48.108;-1.706;2023-02-11T01:12:08;32.43;;;19.53;;
16824;SDS011;8529;48.108;-1.706;2023-02-11T01:14:35;28.03;;;20.00;;
16824;SDS011;8529;48.108;-1.706;2023-02-11T01:17:03;31.13;;;18.90;;
16824;SDS011;8529;48.108;-1.706;2023-02-11T01:19:30;32.23;;;19.83;;
16824;SDS011;8529;48.108;-1.706;2023-02-11T01:21:58;34.80;;;20.33;;
16824;SDS011;8529;48.108;-1.706;2023-02-11T01:24:25;27.57;;;20.07;;
16824;SDS011;8529;48.108;-1.706;2023-02-11T01:26:52;32.10;;;19.67;;
16824;SDS011;8529;48.108;-1.706;2023-02-11T01:29:19;33.37;;;19.70;;
16824;SDS011;8529;48.108;-1.706;2023-02-11T01:31:47;27.57;;;17.93;;
16824;SDS011;8529;48.108;-1.706;2023-02-11T01:34:14;32.30;;;20.33;;
16824;SDS011;8529;48.108;-1.706;2023-02-11T01:36:41;34.20;;;20.23;;
16824;SDS011;8529;48.108;-1.706;2023-02-11T01:39:09;34.93;;;20.07;;
16824;SDS011;8529;48.108;-1.706;2023-02-11T01:41:36;35.50;;;19.73;;
16824;SDS011;8529;48.108;-1.706;2023-02-11T01:44:23;34.53;;;20.60;;
16824;SDS011;8529;48.108;-1.706;2023-02-11T01:46:52;29.20;;;20.20;;
16824;SDS011;8529;48.108;-1.706;2023-02-11T01:49:20;32.47;;;19.00;;
16824;SDS011;8529;48.108;-1.706;2023-02-11T01:51:50;30.30;;;19.37;;
16824;SDS011;8529;48.108;-1.706;2023-02-11T01:54:23;28.33;;;18.73;;
16824;SDS011;8529;48.108;-1.706;2023-02-11T01:57:12;32.40;;;19.13;;
16824;SDS011;8529;48.108;-1.706;2023-02-11T01:59:49;27.30;;;18.47;;
16824;SDS011;8529;48.108;-1.706;2023-02-11T02:02:25;29.67;;;19.70;;
16824;SDS011;8529;48.108;-1.706;2023-02-11T02:04:57;30.53;;;19.80;;
16824;SDS011;8529;48.108;-1.706;2023-02-11T02:07:31;31.93;;;20.20;;
16824;SDS011;8529;48.108;-1.706;2023-02-11T02:10:04;27.93;;;17.63;;
16824;SDS011;8529;48.108;-1.706;2023-02-11T02:12:36;29.70;;;19.27;;
16824;SDS011;8529;48.108;-1.706;2023-02-11T02:15:19;27.43;;;18.30;;
16824;SDS011;8529;48.108;-1.706;2023-02-11T02:17:52;27.37;;;19.30;;
16824;SDS011;8529;48.108;-1.706;2023-02-11T02:20:28;32.20;;;19.10;;
16824;SDS011;8529;48.108;-1.706;2023-02-11T02:23:28;29.20;;;18.87;;
16824;SDS011;8529;48.108;-1.706;2023-02-11T02:29:43;30.17;;;19.00;;
16824;SDS011;8529;48.108;-1.706;2023-02-11T02:32:46;33.53;;;19.87;;
16824;SDS011;8529;48.108;-1.706;2023-02-11T02:35:23;31.53;;;20.90;;
16824;SDS011;8529;48.108;-1.706;2023-02-11T02:37:56;39.47;;;20.63;;
16824;SDS011;8529;48.108;-1.706;2023-02-11T02:40:29;32.63;;;20.47;;
16824;SDS011;8529;48.108;-1.706;2023-02-11T02:43:00;38.23;;;20.77;;
16824;SDS011;8529;48.108;-1.706;2023-02-11T02:45:28;28.23;;;18.67;;
16824;SDS011;8529;48.108;-1.706;2023-02-11T02:47:56;31.97;;;20.17;;
16824;SDS011;8529;48.108;-1.706;2023-02-11T02:50:25;32.23;;;20.40;;
16824;SDS011;8529;48.108;-1.706;2023-02-11T02:52:59;32.00;;;19.60;;
16824;SDS011;8529;48.108;-1.706;2023-02-11T02:55:41;36.47;;;19.83;;
16824;SDS011;8529;48.108;-1.706;2023-02-11T02:58:25;29.07;;;18.47;;
16824;SDS011;8529;48.108;-1.706;2023-02-11T03:01:05;30.73;;;19.23;;
16824;SDS011;8529;48.108;-1.706;2023-02-11T03:03:40;29.63;;;19.10;;
16824;SDS011;8529;48.108;-1.706;2023-02-11T03:06:14;32.30;;;19.20;;
16824;SDS011;8529;48.108;-1.706;2023-02-11T03:08:48;29.87;;;18.80;;
16824;SDS011;8529;48.108;-1.706;2023-02-11T03:11:20;33.13;;;19.83;;
16824;SDS011;8529;48.108;-1.706;2023-02-11T03:13:49;31.50;;;19.37;;
16824;SDS011;8529;48.108;-1.706;2023-02-11T03:16:18;26.27;;;18.07;;
16824;SDS011;8529;48.108;-1.706;2023-02-11T03:18:49;33.17;;;19.83;;
16824;SDS011;8529;48.108;-1.706;2023-02-11T03:21:21;29.40;;;18.00;;
16824;SDS011;8529;48.108;-1.706;2023-02-11T03:23:51;28.33;;;18.63;;
16824;SDS011;8529;48.108;-1.706;2023-02-11T03:26:22;34.73;;;19.33;;
16824;SDS011;8529;48.108;-1.706;2023-02-11T03:28:54;28.17;;;20.10;;
16824;SDS011;8529;48.108;-1.706;2023-02-11T03:31:26;34.57;;;20.17;;
16824;SDS011;8529;48.108;-1.706;2023-02-11T03:34:01;35.27;;;20.53;;
16824;SDS011;8529;48.108;-1.706;2023-02-11T03:36:34;35.40;;;19.83;;
16824;SDS011;8529;48.108;-1.706;2023-02-11T03:39:10;31.93;;;19.83;;
16824;SDS011;8529;48.108;-1.706;2023-02-11T03:41:39;33.50;;;20.23;;
16824;SDS011;8529;48.108;-1.706;2023-02-11T03:44:08;28.57;;;18.43;;
16824;SDS011;8529;48.108;-1.706;2023-02-11T03:46:38;31.93;;;20.07;;
16824;SDS011;8529;48.108;-1.706;2023-02-11T03:49:10;34.30;;;19.73;;
16824;SDS011;8529;48.108;-1.706;2023-02-11T03:51:38;36.90;;;21.13;;
16824;SDS011;8529;48.108;-1.706;2023-02-11T03:54:08;36.70;;;20.23;;
16824;SDS011;8529;48.108;-1.706;2023-02-11T03:56:41;32.20;;;20.00;;
16824;SDS011;8529;48.108;-1.706;2023-02-11T03:59:13;32.40;;;20.57;;
16824;SDS011;8529;48.108;-1.706;2023-02-11T04:01:40;36.43;;;20.67;;
16824;SDS011;8529;48.108;-1.706;2023-02-11T04:04:07;38.60;;;20.77;;
16824;SDS011;8529;48.108;-1.706;2023-02-11T04:06:35;30.97;;;19.07;;
16824;SDS011;8529;48.108;-1.706;2023-02-11T04:09:03;31.80;;;19.43;;
16824;SDS011;8529;48.108;-1.706;2023-02-11T04:11:30;35.10;;;20.03;;
16824;SDS011;8529;48.108;-1.706;2023-02-11T04:13:57;36.80;;;21.10;;
16824;SDS011;8529;48.108;-1.706;2023-02-11T04:16:23;33.10;;;19.67;;
16824;SDS011;8529;48.108;-1.706;2023-02-11T04:18:50;34.37;;;21.20;;
16824;SDS011;8529;48.108;-1.706;2023-02-11T04:21:19;35.57;;;20.80;;
16824;SDS011;8529;48.108;-1.706;2023-02-11T04:23:46;32.50;;;19.07;;
16824;SDS011;8529;48.108;-1.706;2023-02-11T04:26:13;39.70;;;20.30;;
16824;SDS011;8529;48.108;-1.706;2023-02-11T04:28:40;33.63;;;20.30;;
16824;SDS011;8529;48.108;-1.706;2023-02-11T04:31:07;36.17;;;21.00;;
16824;SDS011;8529;48.108;-1.706;2023-02-11T04:33:36;31.83;;;19.03;;
16824;SDS011;8529;48.108;-1.706;2023-02-11T04:36:03;36.00;;;21.00;;
16824;SDS011;8529;48.108;-1.706;2023-02-11T04:38:31;34.10;;;20.17;;
16824;SDS011;8529;48.108;-1.706;2023-02-11T04:40:58;35.20;;;18.70;;
16824;SDS011;8529;48.108;-1.706;2023-02-11T04:43:25;34.83;;;20.73;;
16824;SDS011;8529;48.108;-1.706;2023-02-11T04:45:55;34.33;;;21.53;;
16824;SDS011;8529;48.108;-1.706;2023-02-11T04:48:22;35.70;;;19.63;;
16824;SDS011;8529;48.108;-1.706;2023-02-11T04:50:49;36.10;;;20.17;;
16824;SDS011;8529;48.108;-1.706;2023-02-11T04:53:16;34.67;;;21.47;;
16824;SDS011;8529;48.108;-1.706;2023-02-11T04:55:44;32.50;;;20.17;;
16824;SDS011;8529;48.108;-1.706;2023-02-11T04:58:14;35.90;;;20.80;;
16824;SDS011;8529;48.108;-1.706;2023-02-11T05:00:41;33.93;;;19.93;;
16824;SDS011;8529;48.108;-1.706;2023-02-11T05:03:08;34.23;;;20.33;;
16824;SDS011;8529;48.108;-1.706;2023-02-11T05:05:36;31.33;;;19.20;;
16824;SDS011;8529;48.108;-1.706;2023-02-11T05:08:04;34.80;;;19.30;;
16824;SDS011;8529;48.108;-1.706;2023-02-11T05:10:31;33.00;;;21.87;;
16824;SDS011;8529;48.108;-1.706;2023-02-11T05:13:00;32.20;;;20.07;;
16824;SDS011;8529;48.108;-1.706;2023-02-11T05:15:27;30.67;;;21.27;;
16824;SDS011;8529;48.108;-1.706;2023-02-11T05:17:54;30.20;;;21.67;;
16824;SDS011;8529;48.108;-1.706;2023-02-11T05:20:21;33.53;;;22.10;;
16824;SDS011;8529;48.108;-1.706;2023-02-11T05:22:48;33.50;;;22.17;;
16824;SDS011;8529;48.108;-1.706;2023-02-11T05:25:15;35.07;;;21.53;;
16824;SDS011;8529;48.108;-1.706;2023-02-11T05:27:42;37.77;;;22.87;;
16824;SDS011;8529;48.108;-1.706;2023-02-11T05:30:11;31.60;;;21.37;;
16824;SDS011;8529;48.108;-1.706;2023-02-11T05:32:38;35.13;;;22.87;;
16824;SDS011;8529;48.108;-1.706;2023-02-11T05:35:05;31.20;;;21.00;;
16824;SDS011;8529;48.108;-1.706;2023-02-11T05:37:33;34.40;;;21.33;;
16824;SDS011;8529;48.108;-1.706;2023-02-11T05:40:00;33.20;;;21.63;;
16824;SDS011;8529;48.108;-1.706;2023-02-11T05:42:27;31.00;;;21.10;;
16824;SDS011;8529;48.108;-1.706;2023-02-11T05:44:54;33.40;;;22.60;;
16824;SDS011;8529;48.108;-1.706;2023-02-11T05:47:22;32.07;;;22.20;;
16824;SDS011;8529;48.108;-1.706;2023-02-11T05:49:50;35.87;;;24.13;;
16824;SDS011;8529;48.108;-1.706;2023-02-11T05:52:17;36.33;;;22.93;;
16824;SDS011;8529;48.108;-1.706;2023-02-11T05:54:44;34.37;;;23.77;;
16824;SDS011;8529;48.108;-1.706;2023-02-11T05:57:11;36.33;;;24.37;;
16824;SDS011;8529;48.108;-1.706;2023-02-11T05:59:38;34.43;;;23.53;;
16824;SDS011;8529;48.108;-1.706;2023-02-11T06:02:05;35.23;;;22.23;;
16824;SDS011;8529;48.108;-1.706;2023-02-11T06:04:34;40.23;;;24.53;;
16824;SDS011;8529;48.108;-1.706;2023-02-11T06:07:02;36.80;;;23.73;;
16824;SDS011;8529;48.108;-1.706;2023-02-11T06:09:29;35.20;;;23.67;;
16824;SDS011;8529;48.108;-1.706;2023-02-11T06:11:56;38.63;;;22.53;;
16824;SDS011;8529;48.108;-1.706;2023-02-11T06:14:23;39.87;;;25.60;;
16824;SDS011;8529;48.108;-1.706;2023-02-11T06:16:50;42.90;;;25.57;;
16824;SDS011;8529;48.108;-1.706;2023-02-11T06:19:17;42.13;;;26.70;;
16824;SDS011;8529;48.108;-1.706;2023-02-11T06:21:46;45.87;;;26.33;;
16824;SDS011;8529;48.108;-1.706;2023-02-11T06:24:13;34.30;;;21.97;;
16824;SDS011;8529;48.108;-1.706;2023-02-11T06:26:40;33.30;;;20.43;;
16824;SDS011;8529;48.108;-1.706;2023-02-11T06:29:07;32.57;;;20.83;;
16824;SDS011;8529;48.108;-1.706;2023-02-11T06:31:35;32.93;;;20.20;;
16824;SDS011;8529;48.108;-1.706;2023-02-11T06:34:02;33.30;;;21.33;;
16824;SDS011;8529;48.108;-1.706;2023-02-11T06:36:29;32.37;;;20.77;;
16824;SDS011;8529;48.108;-1.706;2023-02-11T06:38:58;31.10;;;20.80;;
16824;SDS011;8529;48.108;-1.706;2023-02-11T06:41:25;31.20;;;20.67;;
16824;SDS011;8529;48.108;-1.706;2023-02-11T06:43:52;31.10;;;20.33;;
16824;SDS011;8529;48.108;-1.706;2023-02-11T06:46:19;30.87;;;20.23;;
16824;SDS011;8529;48.108;-1.706;2023-02-11T06:48:46;33.73;;;20.33;;
16824;SDS011;8529;48.108;-1.706;2023-02-11T06:51:13;35.07;;;20.13;;
16824;SDS011;8529;48.108;-1.706;2023-02-11T06:53:41;31.37;;;19.67;;
16824;SDS011;8529;48.108;-1.706;2023-02-11T06:56:11;32.27;;;20.33;;
16824;SDS011;8529;48.108;-1.706;2023-02-11T06:58:40;32.67;;;21.07;;
16824;SDS011;8529;48.108;-1.706;2023-02-11T07:01:07;32.07;;;20.53;;
16824;SDS011;8529;48.108;-1.706;2023-02-11T07:03:37;35.50;;;21.00;;
16824;SDS011;8529;48.108;-1.706;2023-02-11T07:06:07;29.47;;;20.07;;
16824;SDS011;8529;48.108;-1.706;2023-02-11T07:08:38;36.20;;;20.43;;
16824;SDS011;8529;48.108;-1.706;2023-02-11T07:11:07;31.10;;;20.67;;
16824;SDS011;8529;48.108;-1.706;2023-02-11T07:13:37;31.00;;;20.50;;
16824;SDS011;8529;48.108;-1.706;2023-02-11T07:16:04;35.30;;;21.80;;
16824;SDS011;8529;48.108;-1.706;2023-02-11T07:18:31;34.60;;;20.10;;
16824;SDS011;8529;48.108;-1.706;2023-02-11T07:20:59;38.37;;;21.30;;
16824;SDS011;8529;48.108;-1.706;2023-02-11T07:23:29;39.13;;;22.03;;
16824;SDS011;8529;48.108;-1.706;2023-02-11T07:25:56;36.30;;;21.80;;
16824;SDS011;8529;48.108;-1.706;2023-02-11T07:28:23;45.07;;;20.83;;
16824;SDS011;8529;48.108;-1.706;2023-02-11T07:30:51;43.20;;;22.43;;
16824;SDS011;8529;48.108;-1.706;2023-02-11T07:33:18;31.40;;;19.17;;
16824;SDS011;8529;48.108;-1.706;2023-02-11T07:35:45;39.47;;;21.50;;
16824;SDS011;8529;48.108;-1.706;2023-02-11T07:38:12;36.43;;;22.47;;
16824;SDS011;8529;48.108;-1.706;2023-02-11T07:40:39;33.80;;;20.77;;
16824;SDS011;8529;48.108;-1.706;2023-02-11T07:43:06;43.47;;;20.53;;
16824;SDS011;8529;48.108;-1.706;2023-02-11T07:45:33;35.67;;;21.30;;
16824;SDS011;8529;48.108;-1.706;2023-02-11T07:48:05;33.53;;;20.70;;
16824;SDS011;8529;48.108;-1.706;2023-02-11T07:50:32;32.60;;;20.80;;
16824;SDS011;8529;48.108;-1.706;2023-02-11T07:52:59;41.67;;;22.47;;
16824;SDS011;8529;48.108;-1.706;2023-02-11T07:55:25;36.43;;;21.30;;
16824;SDS011;8529;48.108;-1.706;2023-02-11T07:57:53;42.83;;;23.27;;
16824;SDS011;8529;48.108;-1.706;2023-02-11T08:00:20;37.40;;;22.20;;
16824;SDS011;8529;48.108;-1.706;2023-02-11T08:02:47;40.80;;;22.47;;
16824;SDS011;8529;48.108;-1.706;2023-02-11T08:05:15;33.40;;;22.00;;
16824;SDS011;8529;48.108;-1.706;2023-02-11T08:07:42;37.57;;;23.17;;
16824;SDS011;8529;48.108;-1.706;2023-02-11T08:10:09;36.57;;;22.57;;
16824;SDS011;8529;48.108;-1.706;2023-02-11T08:12:36;34.40;;;21.30;;
16824;SDS011;8529;48.108;-1.706;2023-02-11T08:15:03;33.73;;;21.53;;
16824;SDS011;8529;48.108;-1.706;2023-02-11T08:17:30;37.63;;;24.63;;
16824;SDS011;8529;48.108;-1.706;2023-02-11T08:19:59;39.17;;;25.93;;
16824;SDS011;8529;48.108;-1.706;2023-02-11T08:22:28;40.30;;;25.17;;
16824;SDS011;8529;48.108;-1.706;2023-02-11T08:24:56;34.57;;;22.27;;
16824;SDS011;8529;48.108;-1.706;2023-02-11T08:27:24;34.47;;;22.50;;
16824;SDS011;8529;48.108;-1.706;2023-02-11T08:29:51;38.73;;;23.03;;
16824;SDS011;8529;48.108;-1.706;2023-02-11T08:32:19;35.53;;;22.37;;
16824;SDS011;8529;48.108;-1.706;2023-02-11T08:34:47;36.37;;;21.83;;
16824;SDS011;8529;48.108;-1.706;2023-02-11T08:37:16;35.33;;;23.10;;
16824;SDS011;8529;48.108;-1.706;2023-02-11T08:39:45;41.03;;;24.57;;
16824;SDS011;8529;48.108;-1.706;2023-02-11T08:42:12;39.37;;;24.20;;
16824;SDS011;8529;48.108;-1.706;2023-02-11T08:44:40;35.57;;;22.70;;
16824;SDS011;8529;48.108;-1.706;2023-02-11T08:47:08;34.80;;;23.97;;
16824;SDS011;8529;48.108;-1.706;2023-02-11T08:49:35;39.50;;;24.70;;
16824;SDS011;8529;48.108;-1.706;2023-02-11T08:52:03;34.23;;;23.80;;
16824;SDS011;8529;48.108;-1.706;2023-02-11T08:54:30;40.03;;;24.33;;
16824;SDS011;8529;48.108;-1.706;2023-02-11T08:56:59;38.00;;;23.90;;
16824;SDS011;8529;48.108;-1.706;2023-02-11T08:59:27;38.50;;;24.43;;
16824;SDS011;8529;48.108;-1.706;2023-02-11T09:01:53;33.63;;;23.43;;
16824;SDS011;8529;48.108;-1.706;2023-02-11T09:04:21;39.23;;;25.27;;
16824;SDS011;8529;48.108;-1.706;2023-02-11T09:06:48;44.07;;;26.13;;
16824;SDS011;8529;48.108;-1.706;2023-02-11T09:09:15;37.13;;;22.93;;
16824;SDS011;8529;48.108;-1.706;2023-02-11T09:11:42;36.30;;;23.30;;
16824;SDS011;8529;48.108;-1.706;2023-02-11T09:14:15;35.33;;;22.43;;
16824;SDS011;8529;48.108;-1.706;2023-02-11T09:16:44;36.10;;;24.17;;
16824;SDS011;8529;48.108;-1.706;2023-02-11T09:19:11;35.30;;;23.57;;
16824;SDS011;8529;48.108;-1.706;2023-02-11T09:21:38;40.33;;;24.00;;
16824;SDS011;8529;48.108;-1.706;2023-02-11T09:24:05;38.37;;;23.67;;
16824;SDS011;8529;48.108;-1.706;2023-02-11T09:26:33;38.80;;;25.13;;
16824;SDS011;8529;48.108;-1.706;2023-02-11T09:29:02;37.67;;;24.17;;
16824;SDS011;8529;48.108;-1.706;2023-02-11T09:31:31;40.53;;;25.20;;
16824;SDS011;8529;48.108;-1.706;2023-02-11T09:34:00;38.60;;;25.00;;
16824;SDS011;8529;48.108;-1.706;2023-02-11T09:36:29;41.60;;;26.20;;
16824;SDS011;8529;48.108;-1.706;2023-02-11T09:38:58;39.87;;;24.63;;
16824;SDS011;8529;48.108;-1.706;2023-02-11T09:41:32;38.47;;;24.30;;
16824;SDS011;8529;48.108;-1.706;2023-02-11T09:44:07;35.27;;;24.57;;
16824;SDS011;8529;48.108;-1.706;2023-02-11T09:46:43;36.03;;;23.87;;
16824;SDS011;8529;48.108;-1.706;2023-02-11T09:49:19;39.63;;;24.60;;
16824;SDS011;8529;48.108;-1.706;2023-02-11T09:51:51;36.80;;;25.37;;
16824;SDS011;8529;48.108;-1.706;2023-02-11T09:54:26;41.03;;;25.07;;
16824;SDS011;8529;48.108;-1.706;2023-02-11T09:56:55;41.20;;;24.73;;
16824;SDS011;8529;48.108;-1.706;2023-02-11T09:59:22;39.03;;;25.33;;
16824;SDS011;8529;48.108;-1.706;2023-02-11T10:01:52;38.80;;;26.23;;
16824;SDS011;8529;48.108;-1.706;2023-02-11T10:04:25;41.70;;;26.17;;
16824;SDS011;8529;48.108;-1.706;2023-02-11T10:07:16;40.30;;;25.47;;
16824;SDS011;8529;48.108;-1.706;2023-02-11T10:09:53;39.17;;;25.33;;
16824;SDS011;8529;48.108;-1.706;2023-02-11T10:12:46;41.00;;;26.43;;
16824;SDS011;8529;48.108;-1.706;2023-02-11T10:15:29;43.00;;;28.00;;
16824;SDS011;8529;48.108;-1.706;2023-02-11T10:18:14;39.47;;;27.33;;
16824;SDS011;8529;48.108;-1.706;2023-02-11T10:21:00;40.37;;;27.80;;
16824;SDS011;8529;48.108;-1.706;2023-02-11T10:23:34;46.50;;;29.43;;
16824;SDS011;8529;48.108;-1.706;2023-02-11T10:26:07;39.17;;;24.57;;
16824;SDS011;8529;48.108;-1.706;2023-02-11T10:28:37;40.70;;;25.63;;
16824;SDS011;8529;48.108;-1.706;2023-02-11T10:31:08;39.30;;;24.80;;
16824;SDS011;8529;48.108;-1.706;2023-02-11T10:33:42;41.27;;;26.40;;
16824;SDS011;8529;48.108;-1.706;2023-02-11T10:36:13;41.70;;;25.43;;
16824;SDS011;8529;48.108;-1.706;2023-02-11T10:38:41;41.43;;;26.03;;
16824;SDS011;8529;48.108;-1.706;2023-02-11T10:41:09;39.70;;;24.03;;
16824;SDS011;8529;48.108;-1.706;2023-02-11T10:43:42;39.60;;;24.57;;
16824;SDS011;8529;48.108;-1.706;2023-02-11T10:46:12;40.07;;;25.13;;
16824;SDS011;8529;48.108;-1.706;2023-02-11T10:48:45;32.87;;;23.53;;
16824;SDS011;8529;48.108;-1.706;2023-02-11T10:51:16;39.93;;;23.23;;
16824;SDS011;8529;48.108;-1.706;2023-02-11T10:53:45;44.23;;;26.10;;
16824;SDS011;8529;48.108;-1.706;2023-02-11T10:56:13;41.57;;;25.50;;
16824;SDS011;8529;48.108;-1.706;2023-02-11T10:58:53;34.40;;;22.47;;
16824;SDS011;8529;48.108;-1.706;2023-02-11T11:01:23;35.37;;;21.50;;
16824;SDS011;8529;48.108;-1.706;2023-02-11T11:04:04;35.80;;;22.40;;
16824;SDS011;8529;48.108;-1.706;2023-02-11T11:06:31;32.93;;;21.07;;
16824;SDS011;8529;48.108;-1.706;2023-02-11T11:09:00;37.10;;;23.03;;
16824;SDS011;8529;48.108;-1.706;2023-02-11T11:11:28;38.57;;;22.27;;
16824;SDS011;8529;48.108;-1.706;2023-02-11T11:13:56;35.77;;;22.50;;
16824;SDS011;8529;48.108;-1.706;2023-02-11T11:16:25;36.63;;;23.47;;
16824;SDS011;8529;48.108;-1.706;2023-02-11T11:21:48;38.00;;;22.10;;
16824;SDS011;8529;48.108;-1.706;2023-02-11T11:24:17;71.77;;;38.03;;
16824;SDS011;8529;48.108;-1.706;2023-02-11T11:26:48;56.43;;;30.90;;
16824;SDS011;8529;48.108;-1.706;2023-02-11T11:29:18;135.07;;;54.70;;
16824;SDS011;8529;48.108;-1.706;2023-02-11T11:31:49;40.77;;;24.70;;
16824;SDS011;8529;48.108;-1.706;2023-02-11T11:34:22;31.00;;;20.40;;
16824;SDS011;8529;48.108;-1.706;2023-02-11T11:36:52;34.90;;;21.07;;
16824;SDS011;8529;48.108;-1.706;2023-02-11T11:39:22;31.63;;;19.67;;
16824;SDS011;8529;48.108;-1.706;2023-02-11T11:41:55;31.57;;;20.73;;
16824;SDS011;8529;48.108;-1.706;2023-02-11T11:44:25;31.47;;;20.40;;
16824;SDS011;8529;48.108;-1.706;2023-02-11T11:47:10;32.17;;;19.17;;
16824;SDS011;8529;48.108;-1.706;2023-02-11T11:49:49;33.53;;;19.10;;
16824;SDS011;8529;48.108;-1.706;2023-02-11T11:52:33;29.03;;;17.77;;
16824;SDS011;8529;48.108;-1.706;2023-02-11T11:55:08;32.17;;;18.50;;
16824;SDS011;8529;48.108;-1.706;2023-02-11T11:57:41;27.97;;;17.83;;
16824;SDS011;8529;48.108;-1.706;2023-02-11T12:00:13;24.63;;;16.23;;
16824;SDS011;8529;48.108;-1.706;2023-02-11T12:05:51;27.80;;;17.77;;
16824;SDS011;8529;48.108;-1.706;2023-02-11T12:08:30;43.03;;;21.97;;
16824;SDS011;8529;48.108;-1.706;2023-02-11T12:11:06;47.20;;;27.47;;
16824;SDS011;8529;48.108;-1.706;2023-02-11T12:13:41;61.90;;;33.63;;
16824;SDS011;8529;48.108;-1.706;2023-02-11T12:16:21;32.83;;;20.87;;
16824;SDS011;8529;48.108;-1.706;2023-02-11T12:22:02;29.43;;;18.67;;
16824;SDS011;8529;48.108;-1.706;2023-02-11T12:24:43;49.07;;;25.83;;
16824;SDS011;8529;48.108;-1.706;2023-02-11T12:27:20;29.87;;;17.63;;
16824;SDS011;8529;48.108;-1.706;2023-02-11T12:30:01;27.73;;;17.30;;
16824;SDS011;8529;48.108;-1.706;2023-02-11T12:32:36;33.93;;;18.50;;
16824;SDS011;8529;48.108;-1.706;2023-02-11T12:35:15;36.83;;;18.63;;
16824;SDS011;8529;48.108;-1.706;2023-02-11T12:40:52;24.67;;;16.73;;
16824;SDS011;8529;48.108;-1.706;2023-02-11T12:43:28;29.33;;;18.07;;
16824;SDS011;8529;48.108;-1.706;2023-02-11T12:49:21;24.60;;;15.00;;
16824;SDS011;8529;48.108;-1.706;2023-02-11T12:52:07;26.77;;;17.03;;
16824;SDS011;8529;48.108;-1.706;2023-02-11T12:54:48;22.47;;;15.73;;
16824;SDS011;8529;48.108;-1.706;2023-02-11T12:57:23;22.17;;;14.03;;
16824;SDS011;8529;48.108;-1.706;2023-02-11T12:59:54;41.63;;;23.47;;
16824;SDS011;8529;48.108;-1.706;2023-02-11T13:02:28;24.87;;;14.87;;
16824;SDS011;8529;48.108;-1.706;2023-02-11T13:05:03;23.23;;;15.77;;
16824;SDS011;8529;48.108;-1.706;2023-02-11T13:07:35;21.33;;;15.20;;
16824;SDS011;8529;48.108;-1.706;2023-02-11T13:10:10;24.33;;;14.73;;
16824;SDS011;8529;48.108;-1.706;2023-02-11T13:12:48;20.87;;;13.20;;
16824;SDS011;8529;48.108;-1.706;2023-02-11T13:15:35;25.30;;;16.47;;
16824;SDS011;8529;48.108;-1.706;2023-02-11T13:18:03;26.23;;;17.07;;
16824;SDS011;8529;48.108;-1.706;2023-02-11T13:20:42;21.20;;;13.10;;
16824;SDS011;8529;48.108;-1.706;2023-02-11T13:23:18;18.80;;;12.43;;
16824;SDS011;8529;48.108;-1.706;2023-02-11T13:25:53;16.67;;;11.57;;
16824;SDS011;8529;48.108;-1.706;2023-02-11T13:28:31;18.10;;;11.77;;
16824;SDS011;8529;48.108;-1.706;2023-02-11T13:31:05;16.40;;;11.13;;
16824;SDS011;8529;48.108;-1.706;2023-02-11T13:33:36;16.97;;;10.73;;
16824;SDS011;8529;48.108;-1.706;2023-02-11T13:36:13;16.87;;;10.83;;
16824;SDS011;8529;48.108;-1.706;2023-02-11T13:38:56;14.33;;;10.37;;
16824;SDS011;8529;48.108;-1.706;2023-02-11T13:41:28;14.30;;;10.43;;
16824;SDS011;8529;48.108;-1.706;2023-02-11T13:44:00;17.07;;;10.57;;
16824;SDS011;8529;48.108;-1.706;2023-02-11T13:46:50;15.50;;;10.33;;
16824;SDS011;8529;48.108;-1.706;2023-02-11T13:49:22;14.13;;;9.00;;
16824;SDS011;8529;48.108;-1.706;2023-02-11T13:51:52;13.37;;;9.40;;
16824;SDS011;8529;48.108;-1.706;2023-02-11T13:54:31;13.17;;;9.30;;
16824;SDS011;8529;48.108;-1.706;2023-02-11T13:59:59;15.97;;;9.23;;
16824;SDS011;8529;48.108;-1.706;2023-02-11T14:02:28;13.40;;;9.20;;
16824;SDS011;8529;48.108;-1.706;2023-02-11T14:05:19;13.53;;;9.37;;
16824;SDS011;8529;48.108;-1.706;2023-02-11T14:14:15;12.73;;;8.50;;
16824;SDS011;8529;48.108;-1.706;2023-02-11T14:19:54;20.73;;;11.60;;
16824;SDS011;8529;48.108;-1.706;2023-02-11T14:22:22;13.13;;;8.67;;
16824;SDS011;8529;48.108;-1.706;2023-02-11T14:24:53;14.13;;;8.67;;
16824;SDS011;8529;48.108;-1.706;2023-02-11T14:27:26;13.55;;;9.00;;
16824;SDS011;8529;48.108;-1.706;2023-02-11T14:30:04;11.97;;;8.53;;
16824;SDS011;8529;48.108;-1.706;2023-02-11T14:32:39;13.73;;;9.40;;
16824;SDS011;8529;48.108;-1.706;2023-02-11T14:35:20;18.83;;;10.82;;
16824;SDS011;8529;48.108;-1.706;2023-02-11T14:37:55;14.52;;;9.48;;
16824;SDS011;8529;48.108;-1.706;2023-02-11T14:40:28;18.13;;;10.47;;
16824;SDS011;8529;48.108;-1.706;2023-02-11T14:43:00;12.23;;;9.30;;
16824;SDS011;8529;48.108;-1.706;2023-02-11T14:45:34;13.07;;;9.13;;
16824;SDS011;8529;48.108;-1.706;2023-02-11T14:48:03;14.37;;;10.03;;
16824;SDS011;8529;48.108;-1.706;2023-02-11T14:50:35;14.43;;;9.70;;
16824;SDS011;8529;48.108;-1.706;2023-02-11T14:53:10;13.15;;;9.20;;
16824;SDS011;8529;48.108;-1.706;2023-02-11T14:55:41;12.70;;;9.50;;
16824;SDS011;8529;48.108;-1.706;2023-02-11T14:58:12;12.95;;;8.93;;
16824;SDS011;8529;48.108;-1.706;2023-02-11T15:00:52;14.77;;;9.57;;
16824;SDS011;8529;48.108;-1.706;2023-02-11T15:03:28;13.27;;;8.68;;
16824;SDS011;8529;48.108;-1.706;2023-02-11T15:05:58;15.20;;;9.25;;
16824;SDS011;8529;48.108;-1.706;2023-02-11T15:08:26;15.25;;;9.55;;
16824;SDS011;8529;48.108;-1.706;2023-02-11T15:10:55;13.30;;;9.27;;
16824;SDS011;8529;48.108;-1.706;2023-02-11T15:13:23;13.10;;;9.75;;
16824;SDS011;8529;48.108;-1.706;2023-02-11T15:15:58;14.98;;;9.50;;